createdAt,value
2018-05-08T00:00:20.595Z,2.97
2018-05-08T00:02:31.686Z,3.13
2018-05-08T00:04:42.819Z,2.57
2018-05-08T00:06:53.935Z,2.73
2018-05-08T00:09:05.050Z,2.90
2018-05-08T00:11:16.118Z,2.80
2018-05-08T00:13:27.278Z,2.90
2018-05-08T00:15:38.401Z,3.03
2018-05-08T00:17:49.674Z,3.70
2018-05-08T00:20:00.859Z,3.20
2018-05-08T00:22:11.909Z,3.37
2018-05-08T00:24:23.110Z,3.40
2018-05-08T00:26:34.226Z,3.70
2018-05-08T00:28:45.356Z,3.40
2018-05-08T00:30:56.422Z,2.83
2018-05-08T00:33:07.482Z,2.80
2018-05-08T00:35:18.605Z,3.13
2018-05-08T00:37:29.663Z,3.30
2018-05-08T00:39:40.782Z,2.50
2018-05-08T00:41:51.844Z,2.90
2018-05-08T00:44:02.924Z,2.90
2018-05-08T00:46:14.009Z,3.23
2018-05-08T00:48:25.058Z,2.90
2018-05-08T00:50:36.137Z,2.50
2018-05-08T00:52:47.199Z,2.40
2018-05-08T00:55:05.347Z,2.90
2018-05-08T00:57:16.426Z,2.80
2018-05-08T00:59:27.484Z,3.17
2018-05-08T01:01:38.574Z,2.73
2018-05-08T01:03:49.677Z,3.00
2018-05-08T01:06:00.838Z,3.00
2018-05-08T01:08:11.962Z,2.50
2018-05-08T01:10:23.098Z,2.83
2018-05-08T01:12:34.179Z,2.80
2018-05-08T01:14:45.349Z,2.90
2018-05-08T01:16:56.412Z,2.83
2018-05-08T01:19:07.455Z,3.33
2018-05-08T01:21:18.533Z,3.17
2018-05-08T01:23:29.665Z,2.93
2018-05-08T01:25:40.775Z,3.00
2018-05-08T01:27:51.846Z,2.60
2018-05-08T01:30:02.897Z,2.93
2018-05-08T01:32:13.947Z,2.63
2018-05-08T01:34:25.069Z,3.10
2018-05-08T01:36:36.137Z,3.10
2018-05-08T01:38:47.326Z,3.40
2018-05-08T01:40:58.375Z,2.93
2018-05-08T01:43:09.551Z,3.37
2018-05-08T01:45:20.645Z,3.57
2018-05-08T01:47:31.710Z,3.53
2018-05-08T01:49:42.801Z,3.10
2018-05-08T01:51:53.877Z,3.67
2018-05-08T01:54:04.957Z,2.43
2018-05-08T01:56:16.041Z,3.10
2018-05-08T01:58:27.215Z,3.17
2018-05-08T02:00:38.362Z,3.37
2018-05-08T02:02:49.575Z,3.23
2018-05-08T02:05:00.623Z,2.77
2018-05-08T02:07:11.679Z,3.20
2018-05-08T02:09:22.821Z,3.20
2018-05-08T02:11:33.911Z,3.00
2018-05-08T02:13:45.014Z,2.87
2018-05-08T02:15:56.087Z,2.80
2018-05-08T02:18:07.535Z,2.83
2018-05-08T02:20:18.580Z,2.93
2018-05-08T02:22:29.674Z,2.80
2018-05-08T02:24:40.809Z,3.00
2018-05-08T02:26:51.849Z,2.87
2018-05-08T02:29:02.929Z,2.87
2018-05-08T02:31:14.010Z,2.80
2018-05-08T02:33:25.126Z,2.67
2018-05-08T02:35:36.206Z,2.37
2018-05-08T02:37:47.366Z,2.90
2018-05-08T02:39:58.468Z,2.50
2018-05-08T02:42:09.578Z,2.47
2018-05-08T02:44:20.693Z,2.53
2018-05-08T02:46:31.778Z,2.90
2018-05-08T02:48:42.842Z,2.90
2018-05-08T02:50:53.935Z,2.30
2018-05-08T02:53:05.088Z,3.30
2018-05-08T02:55:16.357Z,2.60
2018-05-08T02:57:27.456Z,2.83
2018-05-08T02:59:38.508Z,2.73
2018-05-08T03:01:49.805Z,3.53
2018-05-08T03:04:00.843Z,3.33
2018-05-08T03:06:11.915Z,3.50
2018-05-08T03:08:23.078Z,3.30
2018-05-08T03:10:34.181Z,3.70
2018-05-08T03:12:45.291Z,3.83
2018-05-08T03:14:56.366Z,3.37
2018-05-08T03:17:07.494Z,3.20
2018-05-08T03:19:18.537Z,3.37
2018-05-08T03:21:29.871Z,3.33
2018-05-08T03:23:40.922Z,3.83
2018-05-08T03:25:51.986Z,3.80
2018-05-08T03:28:03.057Z,3.37
2018-05-08T03:30:14.115Z,3.70
2018-05-08T03:32:25.286Z,3.33
2018-05-08T03:34:36.398Z,3.47
2018-05-08T03:36:47.496Z,3.77
2018-05-08T03:38:58.577Z,3.70
2018-05-08T03:41:09.646Z,3.93
2018-05-08T03:43:20.728Z,4.07
2018-05-08T03:45:31.869Z,3.57
2018-05-08T03:47:42.949Z,3.70
2018-05-08T03:49:54.213Z,3.80
2018-05-08T03:52:05.401Z,3.47
2018-05-08T03:54:16.510Z,4.10
2018-05-08T03:56:27.637Z,3.73
2018-05-08T03:58:38.735Z,4.43
2018-05-08T04:01:01.880Z,4.20
2018-05-08T04:03:25.219Z,4.40
2018-05-08T04:05:48.575Z,3.70
2018-05-08T04:08:11.954Z,3.63
2018-05-08T04:10:23.909Z,3.33
2018-05-08T04:12:35.022Z,3.30
2018-05-08T04:14:46.110Z,3.57
2018-05-08T04:16:57.189Z,3.97
2018-05-08T04:19:08.286Z,3.97
2018-05-08T04:21:19.347Z,3.30
2018-05-08T04:23:30.435Z,3.60
2018-05-08T04:25:41.541Z,4.03
2018-05-08T04:27:52.637Z,3.60
2018-05-08T04:30:03.797Z,3.83
2018-05-08T04:32:14.920Z,3.37
2018-05-08T04:34:26.057Z,2.63
2018-05-08T04:36:37.177Z,3.30
2018-05-08T04:38:48.224Z,3.20
2018-05-08T04:40:59.329Z,3.23
2018-05-08T04:43:10.416Z,3.67
2018-05-08T04:45:21.522Z,3.73
2018-05-08T04:47:32.600Z,3.50
2018-05-08T04:49:43.802Z,5.50
2018-05-08T04:51:55.118Z,6.37
2018-05-08T04:54:06.182Z,4.10
2018-05-08T04:56:17.229Z,4.00
2018-05-08T04:58:28.306Z,3.77
2018-05-08T05:00:39.373Z,3.60
2018-05-08T05:02:50.422Z,3.57
2018-05-08T05:05:01.554Z,3.70
2018-05-08T05:07:12.641Z,3.23
2018-05-08T05:09:23.922Z,3.60
2018-05-08T05:11:35.070Z,3.73
2018-05-08T05:13:46.219Z,3.23
2018-05-08T05:15:57.435Z,3.60
2018-05-08T05:18:08.666Z,3.40
2018-05-08T05:20:19.805Z,3.27
2018-05-08T05:22:30.947Z,3.00
2018-05-08T05:24:42.112Z,4.00
2018-05-08T05:26:53.267Z,3.87
2018-05-08T05:29:04.432Z,3.47
2018-05-08T05:31:15.581Z,3.07
2018-05-08T05:33:26.693Z,2.83
2018-05-08T05:35:37.931Z,2.40
2018-05-08T05:37:49.072Z,3.70
2018-05-08T05:40:00.336Z,3.90
2018-05-08T05:42:11.442Z,3.03
2018-05-08T05:44:22.580Z,3.03
2018-05-08T05:46:33.756Z,3.07
2018-05-08T05:48:44.863Z,3.70
2018-05-08T05:50:55.962Z,2.70
2018-05-08T05:53:07.090Z,3.33
2018-05-08T05:55:18.210Z,4.10
2018-05-08T05:57:29.442Z,3.80
2018-05-08T05:59:40.639Z,2.37
2018-05-08T06:01:51.752Z,3.13
2018-05-08T06:04:02.926Z,3.30
2018-05-08T06:06:14.005Z,2.70
2018-05-08T06:08:25.102Z,2.77
2018-05-08T06:10:36.207Z,2.30
2018-05-08T06:12:48.655Z,2.40
2018-05-08T06:14:59.754Z,2.30
2018-05-08T06:17:10.845Z,2.33
2018-05-08T06:19:22.666Z,2.20
2018-05-08T06:21:33.724Z,2.60
2018-05-08T06:23:44.800Z,2.20
2018-05-08T06:25:55.854Z,2.37
2018-05-08T06:28:06.970Z,2.20
2018-05-08T06:30:18.153Z,2.17
2018-05-08T06:32:29.252Z,2.10
2018-05-08T06:34:40.474Z,2.33
2018-05-08T06:36:51.562Z,1.90
2018-05-08T06:39:02.646Z,2.27
2018-05-08T06:41:13.718Z,1.83
2018-05-08T06:43:25.016Z,1.97
2018-05-08T06:45:36.061Z,2.30
2018-05-08T06:47:47.170Z,1.83
2018-05-08T06:49:58.291Z,2.20
2018-05-08T06:52:09.367Z,2.10
2018-05-08T06:54:20.576Z,2.00
2018-05-08T06:56:31.633Z,1.90
2018-05-08T06:58:42.787Z,2.20
2018-05-08T07:00:53.906Z,1.57
2018-05-08T07:03:04.970Z,2.10
2018-05-08T07:05:16.072Z,2.40
2018-05-08T07:07:27.162Z,1.97
2018-05-08T07:09:39.068Z,1.77
2018-05-08T07:11:50.139Z,1.73
2018-05-08T07:14:01.222Z,2.00
2018-05-08T07:16:12.616Z,1.93
2018-05-08T07:18:23.468Z,2.13
2018-05-08T07:20:34.683Z,2.20
2018-05-08T07:22:45.808Z,1.97
2018-05-08T07:24:56.874Z,1.70
2018-05-08T07:27:07.954Z,2.17
2018-05-08T07:29:19.058Z,1.77
2018-05-08T07:31:30.172Z,2.10
2018-05-08T07:33:41.359Z,2.10
2018-05-08T07:35:52.503Z,2.00
2018-05-08T07:38:03.537Z,1.80
2018-05-08T07:40:14.954Z,2.13
2018-05-08T07:42:26.159Z,2.17
2018-05-08T07:44:37.292Z,2.20
2018-05-08T07:46:48.498Z,1.63
2018-05-08T07:48:59.589Z,1.80
2018-05-08T07:51:10.766Z,1.87
2018-05-08T07:53:21.842Z,2.00
2018-05-08T07:55:32.930Z,1.77
2018-05-08T07:57:44.038Z,1.83
2018-05-08T07:59:55.699Z,1.50
2018-05-08T08:02:06.759Z,2.10
2018-05-08T08:04:17.870Z,1.53
2018-05-08T08:06:28.985Z,1.80
2018-05-08T08:08:40.090Z,1.60
2018-05-08T08:10:52.262Z,1.90
2018-05-08T08:13:03.441Z,2.10
2018-05-08T08:15:14.530Z,2.00
2018-05-08T08:17:25.602Z,1.97
2018-05-08T08:19:36.830Z,1.70
2018-05-08T08:21:47.890Z,1.80
2018-05-08T08:23:58.946Z,1.37
2018-05-08T08:26:10.055Z,2.00
2018-05-08T08:28:21.122Z,1.80
2018-05-08T08:30:32.200Z,1.47
2018-05-08T08:32:43.280Z,1.87
2018-05-08T08:34:54.534Z,1.90
2018-05-08T08:37:05.607Z,1.80
2018-05-08T08:39:16.728Z,1.63
2018-05-08T08:41:27.863Z,1.70
2018-05-08T08:43:38.938Z,1.50
2018-05-08T08:45:49.989Z,1.77
2018-05-08T08:48:01.038Z,1.60
2018-05-08T08:50:12.250Z,1.67
2018-05-08T08:52:23.439Z,1.80
2018-05-08T08:54:34.579Z,1.80
2018-05-08T08:56:45.702Z,1.70
2018-05-08T08:58:57.025Z,1.70
2018-05-08T09:01:08.140Z,1.90
2018-05-08T09:03:19.213Z,1.87
2018-05-08T09:05:30.305Z,1.83
2018-05-08T09:07:41.374Z,1.60
2018-05-08T09:09:52.463Z,1.60
2018-05-08T09:12:03.536Z,1.80
2018-05-08T09:14:14.699Z,1.37
2018-05-08T09:16:25.808Z,1.80
2018-05-08T09:18:36.992Z,1.53
2018-05-08T09:20:48.031Z,2.00
2018-05-08T09:22:59.202Z,1.50
2018-05-08T09:25:10.265Z,1.40
2018-05-08T09:27:21.448Z,1.87
2018-05-08T09:29:32.432Z,1.73
2018-05-08T09:31:43.523Z,1.50
2018-05-08T09:33:54.730Z,2.07
2018-05-08T09:36:05.803Z,1.57
2018-05-08T09:38:17.039Z,1.50
2018-05-08T09:40:28.189Z,1.97
2018-05-08T09:42:39.274Z,1.90
2018-05-08T09:44:51.681Z,1.60
2018-05-08T09:47:02.788Z,1.83
2018-05-08T09:49:13.907Z,1.57
2018-05-08T09:51:24.995Z,1.57
2018-05-08T09:53:36.060Z,1.70
2018-05-08T09:55:47.181Z,1.67
2018-05-08T09:57:58.258Z,1.80
2018-05-08T10:00:09.358Z,1.63
2018-05-08T10:02:20.437Z,1.73
2018-05-08T10:04:31.752Z,1.77
2018-05-08T10:06:42.871Z,1.53
2018-05-08T10:08:54.027Z,1.73
2018-05-08T10:11:05.126Z,1.70
2018-05-08T10:13:16.493Z,1.60
2018-05-08T10:15:27.571Z,1.50
2018-05-08T10:17:38.657Z,1.40
2018-05-08T10:19:49.762Z,1.50
2018-05-08T10:22:00.923Z,1.30
2018-05-08T10:24:12.014Z,1.20
2018-05-08T10:26:23.212Z,1.37
2018-05-08T10:28:34.477Z,1.43
2018-05-08T10:30:45.540Z,1.50
2018-05-08T10:32:56.652Z,1.40
2018-05-08T10:35:07.699Z,1.20
2018-05-08T10:37:18.810Z,1.40
2018-05-08T10:39:29.889Z,1.60
2018-05-08T10:41:41.019Z,1.33
2018-05-08T10:43:52.141Z,1.10
2018-05-08T10:46:03.302Z,1.50
2018-05-08T10:48:14.425Z,1.30
2018-05-08T10:50:25.497Z,1.20
2018-05-08T10:52:36.634Z,1.20
2018-05-08T10:54:47.741Z,1.33
2018-05-08T10:56:58.822Z,1.20
2018-05-08T10:59:09.927Z,1.40
2018-05-08T11:01:21.095Z,1.23
2018-05-08T11:03:32.416Z,1.30
2018-05-08T11:05:43.564Z,1.30
2018-05-08T11:07:54.722Z,1.40
2018-05-08T11:10:05.844Z,1.40
2018-05-08T11:12:16.926Z,1.50
2018-05-08T11:14:28.038Z,1.20
2018-05-08T11:16:39.131Z,1.40
2018-05-08T11:18:50.203Z,1.10
2018-05-08T11:21:01.337Z,1.33
2018-05-08T11:23:12.406Z,1.60
2018-05-08T11:25:23.530Z,1.20
2018-05-08T11:27:34.646Z,1.90
2018-05-08T11:29:45.874Z,1.30
2018-05-08T11:31:56.961Z,1.40
2018-05-08T11:34:08.051Z,1.10
2018-05-08T11:36:19.169Z,1.27
2018-05-08T11:38:30.246Z,1.07
2018-05-08T11:40:41.444Z,1.27
2018-05-08T11:42:52.542Z,1.33
2018-05-08T11:45:03.834Z,1.47
2018-05-08T11:47:15.023Z,1.53
2018-05-08T11:49:26.074Z,1.40
2018-05-08T11:51:37.162Z,1.30
2018-05-08T11:53:48.274Z,1.50
2018-05-08T11:55:59.403Z,1.40
2018-05-08T11:58:10.515Z,1.20
2018-05-08T12:00:21.608Z,1.33
2018-05-08T12:02:32.757Z,1.60
2018-05-08T12:04:43.830Z,1.30
2018-05-08T12:06:54.921Z,1.40
2018-05-08T12:09:06.039Z,1.23
2018-05-08T12:11:17.114Z,1.57
2018-05-08T12:13:28.206Z,1.33
2018-05-08T12:15:39.299Z,1.27
2018-05-08T12:17:50.403Z,1.60
2018-05-08T12:20:01.777Z,1.47
2018-05-08T12:22:12.861Z,1.47
2018-05-08T12:24:24.058Z,1.60
2018-05-08T12:26:35.279Z,1.60
2018-05-08T12:28:46.366Z,1.30
2018-05-08T12:30:57.479Z,1.47
2018-05-08T12:33:08.550Z,1.30
2018-05-08T12:35:19.713Z,1.47
2018-05-08T12:37:30.794Z,1.80
2018-05-08T12:39:41.951Z,1.50
2018-05-08T12:41:53.022Z,1.20
2018-05-08T12:44:04.089Z,1.10
2018-05-08T12:46:15.271Z,1.27
2018-05-08T12:48:26.480Z,1.43
2018-05-08T12:50:37.630Z,1.00
2018-05-08T12:52:48.718Z,1.63
2018-05-08T12:55:02.768Z,1.20
2018-05-08T12:57:13.926Z,1.40
2018-05-08T12:59:25.059Z,1.47
2018-05-08T13:01:36.291Z,1.50
2018-05-08T13:03:47.502Z,1.30
2018-05-08T13:05:58.645Z,1.40
2018-05-08T13:08:09.871Z,1.50
2018-05-08T13:10:20.971Z,1.40
2018-05-08T13:12:32.115Z,1.47
2018-05-08T13:14:43.221Z,1.20
2018-05-08T13:16:55.419Z,1.60
2018-05-08T13:19:06.502Z,1.27
2018-05-08T13:21:17.617Z,1.53
2018-05-08T13:23:28.729Z,1.17
2018-05-08T13:25:39.834Z,1.43
2018-05-08T13:27:50.922Z,1.60
2018-05-08T13:30:02.742Z,1.40
2018-05-08T13:32:13.984Z,1.30
2018-05-08T13:34:25.080Z,1.57
2018-05-08T13:36:36.249Z,1.40
2018-05-08T13:38:47.387Z,1.50
2018-05-08T13:40:58.467Z,1.40
2018-05-08T13:43:09.734Z,1.23
2018-05-08T13:45:20.828Z,1.33
2018-05-08T13:47:32.064Z,1.20
2018-05-08T13:49:43.154Z,1.37
2018-05-08T13:51:54.269Z,1.40
2018-05-08T13:54:05.391Z,1.33
2018-05-08T13:56:16.479Z,1.20
2018-05-08T13:58:27.752Z,1.67
2018-05-08T14:00:38.810Z,1.57
2018-05-08T14:02:49.979Z,1.30
2018-05-08T14:05:01.106Z,1.07
2018-05-08T14:07:12.190Z,1.43
2018-05-08T14:09:23.318Z,1.13
2018-05-08T14:11:34.394Z,1.70
2018-05-08T14:13:47.452Z,1.30
2018-05-08T14:15:58.582Z,1.67
2018-05-08T14:18:09.679Z,1.23
2018-05-08T14:20:20.846Z,1.40
2018-05-08T14:22:32.102Z,1.47
2018-05-08T14:24:43.169Z,1.30
2018-05-08T14:26:54.407Z,1.30
2018-05-08T14:29:05.501Z,1.50
2018-05-08T14:31:16.722Z,1.63
2018-05-08T14:33:27.725Z,1.20
2018-05-08T14:35:38.827Z,1.50
2018-05-08T14:37:50.069Z,1.23
2018-05-08T14:40:01.161Z,1.20
2018-05-08T14:42:12.363Z,1.47
2018-05-08T14:44:23.602Z,1.03
2018-05-08T14:46:34.789Z,1.47
2018-05-08T14:48:46.106Z,1.40
2018-05-08T14:50:57.215Z,1.23
2018-05-08T14:53:08.355Z,1.40
2018-05-08T14:55:19.455Z,1.40
2018-05-08T14:57:30.625Z,1.40
2018-05-08T14:59:41.717Z,1.30
2018-05-08T15:01:52.808Z,1.20
2018-05-08T15:04:04.018Z,1.30
2018-05-08T15:06:15.138Z,1.30
2018-05-08T15:08:27.095Z,1.63
2018-05-08T15:10:38.250Z,1.50
2018-05-08T15:12:49.351Z,1.10
2018-05-08T15:15:00.563Z,1.40
2018-05-08T15:17:11.726Z,1.40
2018-05-08T15:19:22.878Z,1.50
2018-05-08T15:21:34.109Z,1.60
2018-05-08T15:23:45.222Z,1.40
2018-05-08T15:25:56.491Z,1.40
2018-05-08T15:28:07.571Z,1.13
2018-05-08T15:30:18.687Z,1.30
2018-05-08T15:32:29.778Z,2.00
2018-05-08T15:34:40.905Z,1.40
2018-05-08T15:36:52.118Z,1.40
2018-05-08T15:39:03.202Z,1.27
2018-05-08T15:41:14.478Z,1.37
2018-05-08T15:43:25.567Z,1.37
2018-05-08T15:45:36.801Z,1.20
2018-05-08T15:47:47.896Z,1.50
2018-05-08T15:49:58.990Z,1.40
2018-05-08T15:52:10.114Z,1.43
2018-05-08T15:54:21.293Z,1.50
2018-05-08T15:56:32.491Z,1.57
2018-05-08T15:58:43.558Z,1.53
2018-05-08T16:00:54.671Z,1.93
2018-05-08T16:03:05.800Z,1.63
2018-05-08T16:05:16.951Z,1.90
2018-05-08T16:07:28.089Z,1.70
2018-05-08T16:09:39.192Z,1.57
2018-05-08T16:11:50.347Z,1.73
2018-05-08T16:14:01.471Z,1.43
2018-05-08T16:16:12.531Z,1.67
2018-05-08T16:18:23.622Z,1.40
2018-05-08T16:20:34.745Z,1.50
2018-05-08T16:22:45.895Z,1.73
2018-05-08T16:24:57.019Z,1.73
2018-05-08T16:27:08.162Z,1.13
2018-05-08T16:29:19.250Z,1.67
2018-05-08T16:31:30.362Z,1.40
2018-05-08T16:33:41.482Z,1.37
2018-05-08T16:35:52.697Z,1.27
2018-05-08T16:38:03.834Z,1.60
2018-05-08T16:40:15.111Z,1.37
2018-05-08T16:42:26.336Z,1.60
2018-05-08T16:44:37.504Z,1.57
2018-05-08T16:46:48.619Z,1.63
2018-05-08T16:48:59.685Z,1.50
2018-05-08T16:51:10.859Z,1.57
2018-05-08T16:53:21.976Z,1.47
2018-05-08T16:55:33.045Z,1.40
2018-05-08T16:57:44.251Z,1.30
2018-05-08T16:59:55.327Z,1.30
2018-05-08T17:02:09.113Z,1.33
2018-05-08T17:04:20.260Z,1.30
2018-05-08T17:06:31.326Z,1.60
2018-05-08T17:08:42.495Z,1.47
2018-05-08T17:10:53.564Z,1.37
2018-05-08T17:13:04.758Z,1.60
2018-05-08T17:15:15.831Z,1.30
2018-05-08T17:17:27.023Z,1.40
2018-05-08T17:19:38.144Z,1.57
2018-05-08T17:21:49.230Z,1.60
2018-05-08T17:24:00.359Z,1.60
2018-05-08T17:26:11.445Z,1.20
2018-05-08T17:28:22.544Z,1.50
2018-05-08T17:30:33.694Z,1.50
2018-05-08T17:32:44.865Z,1.30
2018-05-08T17:34:55.964Z,1.73
2018-05-08T17:37:07.109Z,1.57
2018-05-08T17:39:18.297Z,1.40
2018-05-08T17:41:29.431Z,1.50
2018-05-08T17:43:40.515Z,1.50
2018-05-08T17:45:52.602Z,1.77
2018-05-08T17:48:03.730Z,1.50
2018-05-08T17:50:14.826Z,1.57
2018-05-08T17:52:25.933Z,1.70
2018-05-08T17:54:37.047Z,1.63
2018-05-08T17:56:48.141Z,1.30
2018-05-08T17:58:59.299Z,1.47
2018-05-08T18:01:10.442Z,1.30
2018-05-08T18:03:21.554Z,1.30
2018-05-08T18:05:32.762Z,1.47
2018-05-08T18:07:43.890Z,1.60
2018-05-08T18:09:55.028Z,1.60
2018-05-08T18:12:06.136Z,1.33
2018-05-08T18:14:17.267Z,1.80
2018-05-08T18:16:28.386Z,1.43
2018-05-08T18:18:39.485Z,1.43
2018-05-08T18:20:50.630Z,1.77
2018-05-08T18:23:01.739Z,1.50
2018-05-08T18:25:12.900Z,1.77
2018-05-08T18:27:23.978Z,1.63
2018-05-08T18:29:35.163Z,1.80
2018-05-08T18:31:46.274Z,1.30
2018-05-08T18:33:57.403Z,1.27
2018-05-08T18:36:08.542Z,1.93
2018-05-08T18:38:19.634Z,1.83
2018-05-08T18:40:30.758Z,2.03
2018-05-08T18:42:41.834Z,1.70
2018-05-08T18:44:52.931Z,1.90
2018-05-08T18:47:04.015Z,1.80
2018-05-08T18:49:15.163Z,1.70
2018-05-08T18:51:26.258Z,1.70
2018-05-08T18:53:37.365Z,1.60
2018-05-08T18:55:48.450Z,1.70
2018-05-08T18:57:59.713Z,2.30
2018-05-08T19:00:16.936Z,1.90
2018-05-08T19:02:28.057Z,2.20
2018-05-08T19:04:39.276Z,2.30
2018-05-08T19:06:50.517Z,2.40
2018-05-08T19:09:01.670Z,1.93
2018-05-08T19:11:18.840Z,2.00
2018-05-08T19:13:30.027Z,2.03
2018-05-08T19:15:47.182Z,2.10
2018-05-08T19:17:58.305Z,2.10
2018-05-08T19:20:09.421Z,2.37
2018-05-08T19:22:20.506Z,2.57
2018-05-08T19:24:33.489Z,2.30
2018-05-08T19:26:44.599Z,2.43
2018-05-08T19:29:01.785Z,2.00
2018-05-08T19:31:12.906Z,1.90
2018-05-08T19:33:24.035Z,1.93
2018-05-08T19:35:41.175Z,2.20
2018-05-08T19:37:58.261Z,2.37
2018-05-08T19:40:09.354Z,2.17
2018-05-08T19:42:20.469Z,1.90
2018-05-08T19:44:31.682Z,2.00
2018-05-08T19:46:42.877Z,2.00
2018-05-08T19:48:53.982Z,2.30
2018-05-08T19:51:05.092Z,2.03
2018-05-08T19:53:16.204Z,2.07
2018-05-08T19:55:27.375Z,2.00
2018-05-08T19:57:38.454Z,1.90
2018-05-08T19:59:49.717Z,1.93
2018-05-08T20:02:00.808Z,2.03
2018-05-08T20:04:11.955Z,2.20
2018-05-08T20:06:23.251Z,1.90
2018-05-08T20:08:34.390Z,1.60
2018-05-08T20:10:45.542Z,1.70
2018-05-08T20:12:56.649Z,1.97
2018-05-08T20:15:07.816Z,1.80
2018-05-08T20:17:18.899Z,1.77
2018-05-08T20:19:29.966Z,1.70
2018-05-08T20:21:41.129Z,1.90
2018-05-08T20:23:52.226Z,1.90
2018-05-08T20:26:03.434Z,1.80
2018-05-08T20:28:14.525Z,1.93
2018-05-08T20:30:25.755Z,1.93
2018-05-08T20:32:36.883Z,1.30
2018-05-08T20:34:48.010Z,1.87
2018-05-08T20:36:59.160Z,1.63
2018-05-08T20:39:10.279Z,1.87
2018-05-08T20:41:21.466Z,1.60
2018-05-08T20:43:32.659Z,1.70
2018-05-08T20:45:43.894Z,1.77
2018-05-08T20:47:55.202Z,1.80
2018-05-08T20:50:06.291Z,1.80
2018-05-08T20:52:17.425Z,1.30
2018-05-08T20:54:28.602Z,1.80
2018-05-08T20:56:39.782Z,1.80
2018-05-08T20:58:50.873Z,2.13
2018-05-08T21:01:02.013Z,2.00
2018-05-08T21:03:13.046Z,3.57
2018-05-08T21:05:24.121Z,3.40
2018-05-08T21:07:35.270Z,2.50
2018-05-08T21:09:46.433Z,2.37
2018-05-08T21:11:57.577Z,2.00
2018-05-08T21:14:08.691Z,1.90
2018-05-08T21:16:19.950Z,1.70
2018-05-08T21:18:31.025Z,2.10
2018-05-08T21:20:42.148Z,1.90
2018-05-08T21:22:53.256Z,2.07
2018-05-08T21:25:04.355Z,2.03
2018-05-08T21:27:15.518Z,1.90
2018-05-08T21:29:32.573Z,1.90
2018-05-08T21:31:43.704Z,2.00
2018-05-08T21:33:54.841Z,1.90
2018-05-08T21:36:06.070Z,2.37
2018-05-08T21:38:17.198Z,2.00
2018-05-08T21:40:28.282Z,1.80
2018-05-08T21:42:39.368Z,1.83
2018-05-08T21:44:50.459Z,2.10
2018-05-08T21:47:01.613Z,1.80
2018-05-08T21:49:12.687Z,1.90
2018-05-08T21:51:23.891Z,2.00
2018-05-08T21:53:35.074Z,2.20
2018-05-08T21:55:46.198Z,2.17
2018-05-08T21:57:57.295Z,1.73
2018-05-08T22:00:11.442Z,2.10
2018-05-08T22:02:22.533Z,1.80
2018-05-08T22:04:33.748Z,1.80
2018-05-08T22:06:44.862Z,2.27
2018-05-08T22:08:56.022Z,1.87
2018-05-08T22:11:07.095Z,2.37
2018-05-08T22:13:18.233Z,2.23
2018-05-08T22:15:29.327Z,1.90
2018-05-08T22:17:40.441Z,2.50
2018-05-08T22:19:51.602Z,2.60
2018-05-08T22:22:02.691Z,2.20
2018-05-08T22:24:13.773Z,2.43
2018-05-08T22:26:24.855Z,2.57
2018-05-08T22:28:36.058Z,2.43
2018-05-08T22:30:47.170Z,2.40
2018-05-08T22:32:58.355Z,2.40
2018-05-08T22:35:09.468Z,2.63
2018-05-08T22:37:20.561Z,2.23
2018-05-08T22:39:31.680Z,2.63
2018-05-08T22:41:42.769Z,2.17
2018-05-08T22:43:53.914Z,2.00
2018-05-08T22:46:05.012Z,2.50
2018-05-08T22:48:16.183Z,2.47
2018-05-08T22:50:27.270Z,2.40
2018-05-08T22:52:38.351Z,2.47
2018-05-08T22:54:49.466Z,2.30
2018-05-08T22:57:00.559Z,2.47
2018-05-08T22:59:11.671Z,2.23
2018-05-08T23:01:22.733Z,2.53
2018-05-08T23:03:33.866Z,2.40
2018-05-08T23:05:45.185Z,3.00
2018-05-08T23:07:56.313Z,2.63
2018-05-08T23:10:07.387Z,2.70
2018-05-08T23:12:18.452Z,2.60
2018-05-08T23:14:29.650Z,2.50
2018-05-08T23:16:40.744Z,2.60
2018-05-08T23:18:52.010Z,2.93
2018-05-08T23:21:03.072Z,2.80
2018-05-08T23:23:14.181Z,2.50
2018-05-08T23:25:25.222Z,2.50
2018-05-08T23:27:36.325Z,2.40
2018-05-08T23:29:47.394Z,2.60
2018-05-08T23:31:58.454Z,2.30
2018-05-08T23:34:09.522Z,2.53
2018-05-08T23:36:20.581Z,1.63
2018-05-08T23:38:31.671Z,2.30
2018-05-08T23:40:42.766Z,2.60
2018-05-08T23:42:53.909Z,2.00
2018-05-08T23:45:04.995Z,2.50
2018-05-08T23:47:16.101Z,2.00
2018-05-08T23:49:27.187Z,2.40
2018-05-08T23:51:38.306Z,2.53
2018-05-08T23:53:49.385Z,2.00
2018-05-08T23:56:00.483Z,2.30
2018-05-08T23:58:11.652Z,1.90
